sensor_id;sensor_type;location;lat;lon;timestamp;temperature;humidity
51383;DHT22;37475;43.358;1.248;2022-11-20T00:01:21;4.90;93.50
51383;DHT22;37475;43.358;1.248;2022-11-20T00:03:50;4.80;93.60
51383;DHT22;37475;43.358;1.248;2022-11-20T00:06:18;4.80;93.70
51383;DHT22;37475;43.358;1.248;2022-11-20T00:08:45;4.70;93.80
51383;DHT22;37475;43.358;1.248;2022-11-20T00:11:20;4.70;93.90
51383;DHT22;37475;43.358;1.248;2022-11-20T00:13:49;4.70;93.90
51383;DHT22;37475;43.358;1.248;2022-11-20T00:16:18;4.70;94.10
51383;DHT22;37475;43.358;1.248;2022-11-20T00:18:46;4.70;94.20
51383;DHT22;37475;43.358;1.248;2022-11-20T00:21:18;4.60;94.30
51383;DHT22;37475;43.358;1.248;2022-11-20T00:23:45;4.60;94.40
51383;DHT22;37475;43.358;1.248;2022-11-20T00:26:13;4.60;94.40
51383;DHT22;37475;43.358;1.248;2022-11-20T00:28:41;4.60;94.40
51383;DHT22;37475;43.358;1.248;2022-11-20T00:31:13;4.60;94.50
51383;DHT22;37475;43.358;1.248;2022-11-20T00:33:41;4.50;94.50
51383;DHT22;37475;43.358;1.248;2022-11-20T00:36:27;4.50;94.40
51383;DHT22;37475;43.358;1.248;2022-11-20T00:38:56;4.50;94.50
51383;DHT22;37475;43.358;1.248;2022-11-20T00:41:23;4.50;94.30
51383;DHT22;37475;43.358;1.248;2022-11-20T00:43:52;4.40;94.20
51383;DHT22;37475;43.358;1.248;2022-11-20T00:46:20;4.40;94.20
51383;DHT22;37475;43.358;1.248;2022-11-20T00:48:47;4.30;94.40
51383;DHT22;37475;43.358;1.248;2022-11-20T00:51:15;4.30;94.60
51383;DHT22;37475;43.358;1.248;2022-11-20T00:53:43;4.30;94.50
51383;DHT22;37475;43.358;1.248;2022-11-20T00:56:11;4.30;94.60
51383;DHT22;37475;43.358;1.248;2022-11-20T00:58:40;4.30;94.70
51383;DHT22;37475;43.358;1.248;2022-11-20T01:03:45;4.30;94.80
51383;DHT22;37475;43.358;1.248;2022-11-20T01:09:11;4.20;94.70
51383;DHT22;37475;43.358;1.248;2022-11-20T01:11:42;4.20;94.80
51383;DHT22;37475;43.358;1.248;2022-11-20T01:14:14;4.20;94.80
51383;DHT22;37475;43.358;1.248;2022-11-20T01:16:49;4.20;94.80
51383;DHT22;37475;43.358;1.248;2022-11-20T01:19:21;4.20;94.70
51383;DHT22;37475;43.358;1.248;2022-11-20T01:21:52;4.20;94.70
51383;DHT22;37475;43.358;1.248;2022-11-20T01:24:20;4.10;94.70
51383;DHT22;37475;43.358;1.248;2022-11-20T01:26:48;4.10;94.70
51383;DHT22;37475;43.358;1.248;2022-11-20T01:29:23;4.10;94.70
51383;DHT22;37475;43.358;1.248;2022-11-20T01:31:50;4.10;95.10
51383;DHT22;37475;43.358;1.248;2022-11-20T01:34:18;4.10;95.00
51383;DHT22;37475;43.358;1.248;2022-11-20T01:36:45;4.10;95.00
51383;DHT22;37475;43.358;1.248;2022-11-20T01:39:17;4.10;95.00
51383;DHT22;37475;43.358;1.248;2022-11-20T01:41:47;4.00;95.10
51383;DHT22;37475;43.358;1.248;2022-11-20T01:44:55;4.00;95.20
51383;DHT22;37475;43.358;1.248;2022-11-20T01:47:30;4.00;95.20
51383;DHT22;37475;43.358;1.248;2022-11-20T01:50:09;4.00;95.30
51383;DHT22;37475;43.358;1.248;2022-11-20T01:55:23;3.90;95.30
51383;DHT22;37475;43.358;1.248;2022-11-20T01:57:51;3.90;95.30
51383;DHT22;37475;43.358;1.248;2022-11-20T02:00:19;3.90;95.30
51383;DHT22;37475;43.358;1.248;2022-11-20T02:02:51;3.90;95.40
51383;DHT22;37475;43.358;1.248;2022-11-20T02:08:10;3.90;95.30
51383;DHT22;37475;43.358;1.248;2022-11-20T02:10:36;3.90;95.30
51383;DHT22;37475;43.358;1.248;2022-11-20T02:13:02;3.90;95.30
51383;DHT22;37475;43.358;1.248;2022-11-20T02:15:47;3.90;95.30
51383;DHT22;37475;43.358;1.248;2022-11-20T02:18:16;3.90;95.30
51383;DHT22;37475;43.358;1.248;2022-11-20T02:20:45;3.90;95.30
51383;DHT22;37475;43.358;1.248;2022-11-20T02:23:20;4.00;95.30
51383;DHT22;37475;43.358;1.248;2022-11-20T02:25:52;3.90;95.20
51383;DHT22;37475;43.358;1.248;2022-11-20T02:28:19;3.90;95.20
51383;DHT22;37475;43.358;1.248;2022-11-20T02:30:45;3.80;95.10
51383;DHT22;37475;43.358;1.248;2022-11-20T02:33:12;3.80;95.20
51383;DHT22;37475;43.358;1.248;2022-11-20T02:35:43;3.70;95.10
51383;DHT22;37475;43.358;1.248;2022-11-20T02:38:10;3.70;95.00
51383;DHT22;37475;43.358;1.248;2022-11-20T02:40:36;3.70;95.00
51383;DHT22;37475;43.358;1.248;2022-11-20T02:43:02;3.60;95.00
51383;DHT22;37475;43.358;1.248;2022-11-20T02:45:28;3.70;95.10
51383;DHT22;37475;43.358;1.248;2022-11-20T02:47:54;3.70;95.00
51383;DHT22;37475;43.358;1.248;2022-11-20T02:50:20;3.70;95.00
51383;DHT22;37475;43.358;1.248;2022-11-20T02:52:46;3.70;95.00
51383;DHT22;37475;43.358;1.248;2022-11-20T02:55:12;3.70;95.10
51383;DHT22;37475;43.358;1.248;2022-11-20T02:57:38;3.70;95.20
51383;DHT22;37475;43.358;1.248;2022-11-20T03:00:04;3.70;95.30
51383;DHT22;37475;43.358;1.248;2022-11-20T03:02:32;3.70;95.30
51383;DHT22;37475;43.358;1.248;2022-11-20T03:04:58;3.70;95.30
51383;DHT22;37475;43.358;1.248;2022-11-20T03:07:25;3.70;95.30
51383;DHT22;37475;43.358;1.248;2022-11-20T03:09:51;3.70;95.30
51383;DHT22;37475;43.358;1.248;2022-11-20T03:12:16;3.70;95.30
51383;DHT22;37475;43.358;1.248;2022-11-20T03:14:42;3.70;95.30
51383;DHT22;37475;43.358;1.248;2022-11-20T03:17:08;3.70;95.30
51383;DHT22;37475;43.358;1.248;2022-11-20T03:19:34;3.70;95.40
51383;DHT22;37475;43.358;1.248;2022-11-20T03:22:00;3.70;95.30
51383;DHT22;37475;43.358;1.248;2022-11-20T03:24:26;3.70;95.30
51383;DHT22;37475;43.358;1.248;2022-11-20T03:26:52;3.70;95.40
51383;DHT22;37475;43.358;1.248;2022-11-20T03:29:18;3.70;95.30
51383;DHT22;37475;43.358;1.248;2022-11-20T03:31:44;3.70;95.30
51383;DHT22;37475;43.358;1.248;2022-11-20T03:34:11;3.70;95.30
51383;DHT22;37475;43.358;1.248;2022-11-20T03:36:38;3.70;95.20
51383;DHT22;37475;43.358;1.248;2022-11-20T03:39:05;3.70;95.20
51383;DHT22;37475;43.358;1.248;2022-11-20T03:41:35;3.80;95.10
51383;DHT22;37475;43.358;1.248;2022-11-20T03:44:05;3.70;95.00
51383;DHT22;37475;43.358;1.248;2022-11-20T03:46:33;3.60;94.90
51383;DHT22;37475;43.358;1.248;2022-11-20T03:48:59;3.60;94.80
51383;DHT22;37475;43.358;1.248;2022-11-20T03:51:27;3.60;94.80
51383;DHT22;37475;43.358;1.248;2022-11-20T03:53:57;3.60;94.70
51383;DHT22;37475;43.358;1.248;2022-11-20T03:56:29;3.60;94.70
51383;DHT22;37475;43.358;1.248;2022-11-20T03:58:57;3.50;94.60
51383;DHT22;37475;43.358;1.248;2022-11-20T04:01:29;3.40;94.40
51383;DHT22;37475;43.358;1.248;2022-11-20T04:03:59;3.30;94.50
51383;DHT22;37475;43.358;1.248;2022-11-20T04:06:28;3.30;94.60
51383;DHT22;37475;43.358;1.248;2022-11-20T04:08:57;3.30;94.70
51383;DHT22;37475;43.358;1.248;2022-11-20T04:11:25;3.30;94.70
51383;DHT22;37475;43.358;1.248;2022-11-20T04:13:55;3.20;94.70
51383;DHT22;37475;43.358;1.248;2022-11-20T04:16:23;3.20;94.80
51383;DHT22;37475;43.358;1.248;2022-11-20T04:18:55;3.30;95.00
51383;DHT22;37475;43.358;1.248;2022-11-20T04:21:22;3.20;95.00
51383;DHT22;37475;43.358;1.248;2022-11-20T04:23:49;3.20;95.10
51383;DHT22;37475;43.358;1.248;2022-11-20T04:26:16;3.20;95.10
51383;DHT22;37475;43.358;1.248;2022-11-20T04:28:42;3.10;95.20
51383;DHT22;37475;43.358;1.248;2022-11-20T04:31:19;3.10;95.20
51383;DHT22;37475;43.358;1.248;2022-11-20T04:33:49;3.10;95.20
51383;DHT22;37475;43.358;1.248;2022-11-20T04:36:20;3.10;95.20
51383;DHT22;37475;43.358;1.248;2022-11-20T04:38:59;3.10;95.30
51383;DHT22;37475;43.358;1.248;2022-11-20T04:41:33;3.10;95.30
51383;DHT22;37475;43.358;1.248;2022-11-20T04:44:01;3.10;95.30
51383;DHT22;37475;43.358;1.248;2022-11-20T04:46:33;3.00;95.30
51383;DHT22;37475;43.358;1.248;2022-11-20T04:49:00;3.00;95.30
51383;DHT22;37475;43.358;1.248;2022-11-20T04:51:26;3.00;95.20
51383;DHT22;37475;43.358;1.248;2022-11-20T04:53:53;3.10;95.30
51383;DHT22;37475;43.358;1.248;2022-11-20T04:56:19;3.00;95.20
51383;DHT22;37475;43.358;1.248;2022-11-20T04:58:45;3.00;95.20
51383;DHT22;37475;43.358;1.248;2022-11-20T05:01:20;3.00;95.30
51383;DHT22;37475;43.358;1.248;2022-11-20T05:03:48;3.00;95.30
51383;DHT22;37475;43.358;1.248;2022-11-20T05:06:15;2.90;95.30
51383;DHT22;37475;43.358;1.248;2022-11-20T05:08:42;3.00;95.30
51383;DHT22;37475;43.358;1.248;2022-11-20T05:11:11;3.00;95.30
51383;DHT22;37475;43.358;1.248;2022-11-20T05:13:41;3.00;95.30
51383;DHT22;37475;43.358;1.248;2022-11-20T05:16:09;2.90;95.20
51383;DHT22;37475;43.358;1.248;2022-11-20T05:18:37;2.90;95.20
51383;DHT22;37475;43.358;1.248;2022-11-20T05:21:04;3.00;95.30
51383;DHT22;37475;43.358;1.248;2022-11-20T05:23:31;2.90;95.20
51383;DHT22;37475;43.358;1.248;2022-11-20T05:25:59;2.90;95.20
51383;DHT22;37475;43.358;1.248;2022-11-20T05:28:27;2.90;95.20
51383;DHT22;37475;43.358;1.248;2022-11-20T05:30:54;3.00;95.10
51383;DHT22;37475;43.358;1.248;2022-11-20T05:33:20;2.90;95.10
51383;DHT22;37475;43.358;1.248;2022-11-20T05:35:46;2.90;95.10
51383;DHT22;37475;43.358;1.248;2022-11-20T05:38:13;2.90;95.10
51383;DHT22;37475;43.358;1.248;2022-11-20T05:40:39;2.90;95.10
51383;DHT22;37475;43.358;1.248;2022-11-20T05:43:05;2.90;95.00
51383;DHT22;37475;43.358;1.248;2022-11-20T05:45:31;2.70;94.90
51383;DHT22;37475;43.358;1.248;2022-11-20T05:48:00;2.80;94.90
51383;DHT22;37475;43.358;1.248;2022-11-20T05:50:27;2.70;94.80
51383;DHT22;37475;43.358;1.248;2022-11-20T05:52:53;2.70;94.90
51383;DHT22;37475;43.358;1.248;2022-11-20T05:55:19;2.70;95.00
51383;DHT22;37475;43.358;1.248;2022-11-20T05:57:45;2.70;95.00
51383;DHT22;37475;43.358;1.248;2022-11-20T06:00:11;2.70;95.00
51383;DHT22;37475;43.358;1.248;2022-11-20T06:02:38;2.80;95.00
51383;DHT22;37475;43.358;1.248;2022-11-20T06:05:04;2.80;95.00
51383;DHT22;37475;43.358;1.248;2022-11-20T06:07:30;2.80;95.00
51383;DHT22;37475;43.358;1.248;2022-11-20T06:09:56;2.70;95.00
51383;DHT22;37475;43.358;1.248;2022-11-20T06:12:21;2.80;95.00
51383;DHT22;37475;43.358;1.248;2022-11-20T06:14:47;2.80;95.00
51383;DHT22;37475;43.358;1.248;2022-11-20T06:17:13;2.80;94.90
51383;DHT22;37475;43.358;1.248;2022-11-20T06:19:39;2.70;94.80
51383;DHT22;37475;43.358;1.248;2022-11-20T06:22:05;2.70;94.80
51383;DHT22;37475;43.358;1.248;2022-11-20T06:24:30;2.70;94.80
51383;DHT22;37475;43.358;1.248;2022-11-20T06:26:56;2.60;94.70
51383;DHT22;37475;43.358;1.248;2022-11-20T06:29:22;2.60;94.70
51383;DHT22;37475;43.358;1.248;2022-11-20T06:31:48;2.60;94.70
51383;DHT22;37475;43.358;1.248;2022-11-20T06:34:14;2.60;94.80
51383;DHT22;37475;43.358;1.248;2022-11-20T06:36:39;2.60;94.80
51383;DHT22;37475;43.358;1.248;2022-11-20T06:39:05;2.60;94.80
51383;DHT22;37475;43.358;1.248;2022-11-20T06:41:31;2.60;94.80
51383;DHT22;37475;43.358;1.248;2022-11-20T06:43:57;2.50;94.80
51383;DHT22;37475;43.358;1.248;2022-11-20T06:46:23;2.50;94.90
51383;DHT22;37475;43.358;1.248;2022-11-20T06:48:50;2.50;94.90
51383;DHT22;37475;43.358;1.248;2022-11-20T06:51:16;2.50;95.00
51383;DHT22;37475;43.358;1.248;2022-11-20T06:53:43;2.50;95.10
51383;DHT22;37475;43.358;1.248;2022-11-20T06:56:09;2.40;95.10
51383;DHT22;37475;43.358;1.248;2022-11-20T06:58:36;2.40;95.20
51383;DHT22;37475;43.358;1.248;2022-11-20T07:01:05;2.40;95.20
51383;DHT22;37475;43.358;1.248;2022-11-20T07:03:34;2.50;95.20
51383;DHT22;37475;43.358;1.248;2022-11-20T07:06:01;2.40;95.20
51383;DHT22;37475;43.358;1.248;2022-11-20T07:08:27;2.40;95.20
51383;DHT22;37475;43.358;1.248;2022-11-20T07:10:57;2.40;95.30
51383;DHT22;37475;43.358;1.248;2022-11-20T07:13:25;2.40;95.30
51383;DHT22;37475;43.358;1.248;2022-11-20T07:15:51;2.40;95.40
51383;DHT22;37475;43.358;1.248;2022-11-20T07:18:17;2.40;95.40
51383;DHT22;37475;43.358;1.248;2022-11-20T07:20:42;2.40;95.40
51383;DHT22;37475;43.358;1.248;2022-11-20T07:23:08;2.40;95.50
51383;DHT22;37475;43.358;1.248;2022-11-20T07:25:34;2.50;95.50
51383;DHT22;37475;43.358;1.248;2022-11-20T07:28:02;2.60;95.50
51383;DHT22;37475;43.358;1.248;2022-11-20T07:30:29;2.60;95.50
51383;DHT22;37475;43.358;1.248;2022-11-20T07:32:56;2.60;95.50
51383;DHT22;37475;43.358;1.248;2022-11-20T07:35:23;2.60;95.50
51383;DHT22;37475;43.358;1.248;2022-11-20T07:37:49;2.70;95.40
51383;DHT22;37475;43.358;1.248;2022-11-20T07:40:16;2.70;95.40
51383;DHT22;37475;43.358;1.248;2022-11-20T07:42:53;2.70;95.40
51383;DHT22;37475;43.358;1.248;2022-11-20T07:45:21;2.80;95.40
51383;DHT22;37475;43.358;1.248;2022-11-20T07:47:48;2.90;95.30
51383;DHT22;37475;43.358;1.248;2022-11-20T07:50:15;3.10;95.30
51383;DHT22;37475;43.358;1.248;2022-11-20T07:52:41;3.20;95.30
51383;DHT22;37475;43.358;1.248;2022-11-20T07:55:07;3.40;95.30
51383;DHT22;37475;43.358;1.248;2022-11-20T07:57:34;3.50;95.10
51383;DHT22;37475;43.358;1.248;2022-11-20T07:59:59;3.50;94.90
51383;DHT22;37475;43.358;1.248;2022-11-20T08:02:25;3.60;94.80
51383;DHT22;37475;43.358;1.248;2022-11-20T08:04:51;3.70;94.60
51383;DHT22;37475;43.358;1.248;2022-11-20T08:07:17;3.80;94.40
51383;DHT22;37475;43.358;1.248;2022-11-20T08:09:43;3.80;93.90
51383;DHT22;37475;43.358;1.248;2022-11-20T08:12:19;3.90;93.80
51383;DHT22;37475;43.358;1.248;2022-11-20T08:15:05;3.90;93.60
51383;DHT22;37475;43.358;1.248;2022-11-20T08:17:31;4.10;93.60
51383;DHT22;37475;43.358;1.248;2022-11-20T08:19:57;4.20;93.60
51383;DHT22;37475;43.358;1.248;2022-11-20T08:22:23;4.20;93.40
51383;DHT22;37475;43.358;1.248;2022-11-20T08:24:50;4.30;93.30
51383;DHT22;37475;43.358;1.248;2022-11-20T08:27:16;4.50;93.20
51383;DHT22;37475;43.358;1.248;2022-11-20T08:29:41;4.60;93.10
51383;DHT22;37475;43.358;1.248;2022-11-20T08:32:07;4.60;93.00
51383;DHT22;37475;43.358;1.248;2022-11-20T08:34:33;4.70;92.60
51383;DHT22;37475;43.358;1.248;2022-11-20T08:36:59;4.80;92.40
51383;DHT22;37475;43.358;1.248;2022-11-20T08:39:24;4.80;92.10
51383;DHT22;37475;43.358;1.248;2022-11-20T08:41:50;4.90;91.70
51383;DHT22;37475;43.358;1.248;2022-11-20T08:44:16;5.10;91.60
51383;DHT22;37475;43.358;1.248;2022-11-20T08:46:42;5.10;91.70
51383;DHT22;37475;43.358;1.248;2022-11-20T08:49:10;5.10;91.50
51383;DHT22;37475;43.358;1.248;2022-11-20T08:51:38;5.20;91.40
51383;DHT22;37475;43.358;1.248;2022-11-20T08:54:05;5.20;91.00
51383;DHT22;37475;43.358;1.248;2022-11-20T08:56:31;5.20;90.90
51383;DHT22;37475;43.358;1.248;2022-11-20T08:58:57;5.30;90.70
51383;DHT22;37475;43.358;1.248;2022-11-20T09:01:25;5.60;90.60
51383;DHT22;37475;43.358;1.248;2022-11-20T09:03:50;5.60;89.80
51383;DHT22;37475;43.358;1.248;2022-11-20T09:06:17;5.60;89.60
51383;DHT22;37475;43.358;1.248;2022-11-20T09:08:43;5.80;89.50
51383;DHT22;37475;43.358;1.248;2022-11-20T09:11:09;5.90;89.40
51383;DHT22;37475;43.358;1.248;2022-11-20T09:13:36;5.80;88.60
51383;DHT22;37475;43.358;1.248;2022-11-20T09:16:04;5.80;88.40
51383;DHT22;37475;43.358;1.248;2022-11-20T09:18:32;5.80;88.10
51383;DHT22;37475;43.358;1.248;2022-11-20T09:21:00;5.90;88.00
51383;DHT22;37475;43.358;1.248;2022-11-20T09:23:27;6.10;87.90
51383;DHT22;37475;43.358;1.248;2022-11-20T09:25:57;6.20;87.60
51383;DHT22;37475;43.358;1.248;2022-11-20T09:28:25;6.30;87.20
51383;DHT22;37475;43.358;1.248;2022-11-20T09:30:51;6.40;87.00
51383;DHT22;37475;43.358;1.248;2022-11-20T09:33:17;6.40;86.50
51383;DHT22;37475;43.358;1.248;2022-11-20T09:35:44;6.60;86.80
51383;DHT22;37475;43.358;1.248;2022-11-20T09:38:10;6.70;86.30
51383;DHT22;37475;43.358;1.248;2022-11-20T09:41:02;6.90;85.50
51383;DHT22;37475;43.358;1.248;2022-11-20T09:46:57;7.30;85.50
51383;DHT22;37475;43.358;1.248;2022-11-20T09:52:49;7.40;83.00
51383;DHT22;37475;43.358;1.248;2022-11-20T09:55:19;7.60;83.70
51383;DHT22;37475;43.358;1.248;2022-11-20T09:57:48;7.70;83.40
51383;DHT22;37475;43.358;1.248;2022-11-20T10:00:17;7.80;82.80
51383;DHT22;37475;43.358;1.248;2022-11-20T10:03:05;8.20;81.90
51383;DHT22;37475;43.358;1.248;2022-11-20T10:05:47;8.60;78.80
51383;DHT22;37475;43.358;1.248;2022-11-20T10:11:21;9.10;77.00
51383;DHT22;37475;43.358;1.248;2022-11-20T10:23:44;10.20;72.90
51383;DHT22;37475;43.358;1.248;2022-11-20T10:26:51;10.50;72.30
51383;DHT22;37475;43.358;1.248;2022-11-20T10:29:32;11.00;70.50
51383;DHT22;37475;43.358;1.248;2022-11-20T10:32:23;11.10;70.80
51383;DHT22;37475;43.358;1.248;2022-11-20T10:38:16;11.10;69.70
51383;DHT22;37475;43.358;1.248;2022-11-20T10:40:57;11.30;69.50
51383;DHT22;37475;43.358;1.248;2022-11-20T10:43:45;11.50;70.10
51383;DHT22;37475;43.358;1.248;2022-11-20T10:46:18;12.00;67.80
51383;DHT22;37475;43.358;1.248;2022-11-20T10:48:47;11.90;67.20
51383;DHT22;37475;43.358;1.248;2022-11-20T10:54:29;12.60;67.70
51383;DHT22;37475;43.358;1.248;2022-11-20T10:57:10;12.60;66.90
51383;DHT22;37475;43.358;1.248;2022-11-20T11:02:43;12.80;66.90
51383;DHT22;37475;43.358;1.248;2022-11-20T11:07:58;12.70;67.00
51383;DHT22;37475;43.358;1.248;2022-11-20T11:11:02;13.10;65.70
51383;DHT22;37475;43.358;1.248;2022-11-20T11:13:22;13.60;66.20
51383;DHT22;37475;43.358;1.248;2022-11-20T11:15:53;14.30;64.00
51383;DHT22;37475;43.358;1.248;2022-11-20T11:18:30;14.30;62.70
51383;DHT22;37475;43.358;1.248;2022-11-20T11:21:00;14.90;60.90
51383;DHT22;37475;43.358;1.248;2022-11-20T11:26:01;15.50;55.00
51383;DHT22;37475;43.358;1.248;2022-11-20T11:28:28;14.40;56.50
51383;DHT22;37475;43.358;1.248;2022-11-20T11:30:55;14.60;57.90
51383;DHT22;37475;43.358;1.248;2022-11-20T11:33:28;14.20;57.00
51383;DHT22;37475;43.358;1.248;2022-11-20T11:35:57;14.20;59.30
51383;DHT22;37475;43.358;1.248;2022-11-20T11:38:36;14.20;58.30
51383;DHT22;37475;43.358;1.248;2022-11-20T11:41:05;14.80;58.40
51383;DHT22;37475;43.358;1.248;2022-11-20T11:43:34;14.40;55.20
51383;DHT22;37475;43.358;1.248;2022-11-20T11:52:00;13.90;60.90
51383;DHT22;37475;43.358;1.248;2022-11-20T11:54:57;13.30;61.30
51383;DHT22;37475;43.358;1.248;2022-11-20T12:00:21;13.30;63.00
51383;DHT22;37475;43.358;1.248;2022-11-20T12:03:50;13.10;63.00
51383;DHT22;37475;43.358;1.248;2022-11-20T12:05:50;13.20;63.80
51383;DHT22;37475;43.358;1.248;2022-11-20T12:16:56;13.30;64.80
51383;DHT22;37475;43.358;1.248;2022-11-20T12:19:23;13.20;63.90
51383;DHT22;37475;43.358;1.248;2022-11-20T12:25:29;13.10;63.90
51383;DHT22;37475;43.358;1.248;2022-11-20T12:41:33;12.10;75.00
51383;DHT22;37475;43.358;1.248;2022-11-20T12:51:30;11.10;85.70
51383;DHT22;37475;43.358;1.248;2022-11-20T12:57:23;11.00;88.30
51383;DHT22;37475;43.358;1.248;2022-11-20T13:00:09;11.00;87.60
51383;DHT22;37475;43.358;1.248;2022-11-20T13:08:50;10.90;90.30
51383;DHT22;37475;43.358;1.248;2022-11-20T13:11:34;10.90;90.50
51383;DHT22;37475;43.358;1.248;2022-11-20T13:17:24;11.10;90.90
51383;DHT22;37475;43.358;1.248;2022-11-20T13:20:04;11.20;90.70
51383;DHT22;37475;43.358;1.248;2022-11-20T13:22:48;11.20;90.90
51383;DHT22;37475;43.358;1.248;2022-11-20T13:27:56;11.40;90.80
51383;DHT22;37475;43.358;1.248;2022-11-20T13:30:24;11.50;90.80
51383;DHT22;37475;43.358;1.248;2022-11-20T13:33:00;11.70;90.80
51383;DHT22;37475;43.358;1.248;2022-11-20T13:35:37;11.80;90.60
51383;DHT22;37475;43.358;1.248;2022-11-20T13:38:14;11.90;90.50
51383;DHT22;37475;43.358;1.248;2022-11-20T13:40:59;12.00;89.80
51383;DHT22;37475;43.358;1.248;2022-11-20T13:43:47;12.10;90.40
51383;DHT22;37475;43.358;1.248;2022-11-20T13:46:13;12.60;89.50
51383;DHT22;37475;43.358;1.248;2022-11-20T13:48:45;13.20;87.30
51383;DHT22;37475;43.358;1.248;2022-11-20T14:02:19;12.40;89.40
51383;DHT22;37475;43.358;1.248;2022-11-20T14:04:53;12.50;88.60
51383;DHT22;37475;43.358;1.248;2022-11-20T14:07:25;12.60;88.40
51383;DHT22;37475;43.358;1.248;2022-11-20T14:09:57;12.60;88.00
51383;DHT22;37475;43.358;1.248;2022-11-20T14:12:30;12.70;87.70
51383;DHT22;37475;43.358;1.248;2022-11-20T14:14:58;12.60;87.70
51383;DHT22;37475;43.358;1.248;2022-11-20T14:17:34;12.70;87.60
51383;DHT22;37475;43.358;1.248;2022-11-20T14:20:20;12.90;86.80
51383;DHT22;37475;43.358;1.248;2022-11-20T14:22:51;13.20;86.20
51383;DHT22;37475;43.358;1.248;2022-11-20T14:27:47;13.40;86.20
51383;DHT22;37475;43.358;1.248;2022-11-20T14:30:18;13.40;85.20
51383;DHT22;37475;43.358;1.248;2022-11-20T14:32:47;13.40;84.30
51383;DHT22;37475;43.358;1.248;2022-11-20T14:35:28;13.40;83.60
51383;DHT22;37475;43.358;1.248;2022-11-20T14:37:55;13.40;83.90
51383;DHT22;37475;43.358;1.248;2022-11-20T14:42:51;13.40;84.00
51383;DHT22;37475;43.358;1.248;2022-11-20T14:45:19;13.30;84.00
51383;DHT22;37475;43.358;1.248;2022-11-20T14:47:46;13.40;84.10
51383;DHT22;37475;43.358;1.248;2022-11-20T14:50:32;13.40;84.20
51383;DHT22;37475;43.358;1.248;2022-11-20T14:53:00;13.40;83.90
51383;DHT22;37475;43.358;1.248;2022-11-20T14:55:36;13.40;83.80
51383;DHT22;37475;43.358;1.248;2022-11-20T14:58:21;13.30;83.60
51383;DHT22;37475;43.358;1.248;2022-11-20T15:00:59;13.30;83.60
51383;DHT22;37475;43.358;1.248;2022-11-20T15:03:37;13.30;83.90
51383;DHT22;37475;43.358;1.248;2022-11-20T15:06:06;13.20;82.70
51383;DHT22;37475;43.358;1.248;2022-11-20T15:08:33;13.10;81.50
51383;DHT22;37475;43.358;1.248;2022-11-20T15:11:00;13.10;78.90
51383;DHT22;37475;43.358;1.248;2022-11-20T15:15:57;13.10;76.20
51383;DHT22;37475;43.358;1.248;2022-11-20T15:18:36;13.20;74.10
51383;DHT22;37475;43.358;1.248;2022-11-20T15:21:09;13.10;75.70
51383;DHT22;37475;43.358;1.248;2022-11-20T15:23:40;13.10;76.80
51383;DHT22;37475;43.358;1.248;2022-11-20T15:26:07;13.10;76.70
51383;DHT22;37475;43.358;1.248;2022-11-20T15:31:03;13.00;77.50
51383;DHT22;37475;43.358;1.248;2022-11-20T15:33:30;13.00;78.90
51383;DHT22;37475;43.358;1.248;2022-11-20T15:35:56;13.00;79.80
51383;DHT22;37475;43.358;1.248;2022-11-20T15:38:22;13.00;80.10
51383;DHT22;37475;43.358;1.248;2022-11-20T15:40:48;12.90;80.10
51383;DHT22;37475;43.358;1.248;2022-11-20T15:43:14;13.00;80.20
51383;DHT22;37475;43.358;1.248;2022-11-20T15:45:50;12.90;80.70
51383;DHT22;37475;43.358;1.248;2022-11-20T15:48:29;12.90;81.30
51383;DHT22;37475;43.358;1.248;2022-11-20T15:54:03;12.80;83.60
51383;DHT22;37475;43.358;1.248;2022-11-20T15:56:39;12.70;84.70
51383;DHT22;37475;43.358;1.248;2022-11-20T15:59:05;12.60;85.60
51383;DHT22;37475;43.358;1.248;2022-11-20T16:01:31;12.60;85.30
51383;DHT22;37475;43.358;1.248;2022-11-20T16:03:57;12.60;84.80
51383;DHT22;37475;43.358;1.248;2022-11-20T16:06:23;12.60;84.80
51383;DHT22;37475;43.358;1.248;2022-11-20T16:08:48;12.50;84.20
51383;DHT22;37475;43.358;1.248;2022-11-20T16:11:16;12.60;82.20
51383;DHT22;37475;43.358;1.248;2022-11-20T16:13:42;12.50;82.30
51383;DHT22;37475;43.358;1.248;2022-11-20T16:16:30;12.40;82.30
51383;DHT22;37475;43.358;1.248;2022-11-20T16:18:58;12.30;81.30
51383;DHT22;37475;43.358;1.248;2022-11-20T16:21:25;12.20;82.20
51383;DHT22;37475;43.358;1.248;2022-11-20T16:24:01;12.10;82.80
51383;DHT22;37475;43.358;1.248;2022-11-20T16:26:29;12.10;83.00
51383;DHT22;37475;43.358;1.248;2022-11-20T16:28:55;12.10;83.40
51383;DHT22;37475;43.358;1.248;2022-11-20T16:31:22;12.00;83.70
51383;DHT22;37475;43.358;1.248;2022-11-20T16:33:55;12.10;83.40
51383;DHT22;37475;43.358;1.248;2022-11-20T16:36:23;12.00;83.40
51383;DHT22;37475;43.358;1.248;2022-11-20T16:38:55;11.90;84.20
51383;DHT22;37475;43.358;1.248;2022-11-20T16:41:23;12.00;83.60
51383;DHT22;37475;43.358;1.248;2022-11-20T16:44:01;12.10;83.40
51383;DHT22;37475;43.358;1.248;2022-11-20T16:46:30;12.10;83.20
51383;DHT22;37475;43.358;1.248;2022-11-20T16:48:58;12.00;83.50
51383;DHT22;37475;43.358;1.248;2022-11-20T16:51:29;12.00;83.20
51383;DHT22;37475;43.358;1.248;2022-11-20T16:53:56;12.00;83.00
51383;DHT22;37475;43.358;1.248;2022-11-20T16:56:24;12.00;82.70
51383;DHT22;37475;43.358;1.248;2022-11-20T16:58:54;12.00;82.10
51383;DHT22;37475;43.358;1.248;2022-11-20T17:01:22;12.10;81.70
51383;DHT22;37475;43.358;1.248;2022-11-20T17:04:04;12.10;81.80
51383;DHT22;37475;43.358;1.248;2022-11-20T17:06:33;12.00;82.20
51383;DHT22;37475;43.358;1.248;2022-11-20T17:09:05;12.00;82.40
51383;DHT22;37475;43.358;1.248;2022-11-20T17:11:34;12.00;82.80
51383;DHT22;37475;43.358;1.248;2022-11-20T17:14:00;12.00;82.80
51383;DHT22;37475;43.358;1.248;2022-11-20T17:16:28;12.00;83.20
51383;DHT22;37475;43.358;1.248;2022-11-20T17:18:55;11.90;83.50
51383;DHT22;37475;43.358;1.248;2022-11-20T17:21:21;12.00;83.40
51383;DHT22;37475;43.358;1.248;2022-11-20T17:23:48;12.00;83.60
51383;DHT22;37475;43.358;1.248;2022-11-20T17:26:22;11.90;83.80
51383;DHT22;37475;43.358;1.248;2022-11-20T17:28:57;11.90;84.10
51383;DHT22;37475;43.358;1.248;2022-11-20T17:31:25;11.80;84.00
51383;DHT22;37475;43.358;1.248;2022-11-20T17:33:51;11.80;83.60
51383;DHT22;37475;43.358;1.248;2022-11-20T17:36:18;11.80;83.90
51383;DHT22;37475;43.358;1.248;2022-11-20T17:38:44;11.70;84.20
51383;DHT22;37475;43.358;1.248;2022-11-20T17:41:14;11.70;84.00
51383;DHT22;37475;43.358;1.248;2022-11-20T17:43:42;11.80;84.30
51383;DHT22;37475;43.358;1.248;2022-11-20T17:46:10;11.70;84.20
51383;DHT22;37475;43.358;1.248;2022-11-20T17:48:38;11.70;84.30
51383;DHT22;37475;43.358;1.248;2022-11-20T17:51:10;11.70;84.50
51383;DHT22;37475;43.358;1.248;2022-11-20T17:53:40;11.70;84.50
51383;DHT22;37475;43.358;1.248;2022-11-20T17:56:07;11.60;84.80
51383;DHT22;37475;43.358;1.248;2022-11-20T17:58:52;11.60;85.00
51383;DHT22;37475;43.358;1.248;2022-11-20T18:01:18;11.60;84.50
51383;DHT22;37475;43.358;1.248;2022-11-20T18:03:45;11.60;84.80